createdAt,value
2022-10-14T00:02:00.288Z,99237.22
2022-10-14T00:04:46.562Z,99257.91
2022-10-14T00:07:33.079Z,99220.88
2022-10-14T00:10:19.296Z,99257.09
2022-10-14T00:13:05.885Z,99258.81
2022-10-14T00:15:52.388Z,99235.53
2022-10-14T00:18:39.856Z,99226.03
2022-10-14T00:21:27.853Z,99253.63
2022-10-14T00:24:16.566Z,99184.63
2022-10-14T00:27:03.187Z,99215.66
2022-10-14T00:29:49.847Z,99244.16
2022-10-14T00:32:36.102Z,99215.69
2022-10-14T00:35:23.639Z,99262.25
2022-10-14T00:38:09.905Z,99259.66
2022-10-14T00:40:56.217Z,99261.38
2022-10-14T00:43:59.224Z,99259.66
2022-10-14T00:46:50.005Z,99264.84
2022-10-14T00:49:40.759Z,99256.19
2022-10-14T00:52:27.558Z,99263.13
2022-10-14T00:55:17.961Z,99244.13
2022-10-14T00:58:05.814Z,99263.09
2022-10-14T01:00:52.462Z,99237.25
2022-10-14T01:03:40.488Z,99227.75
2022-10-14T01:06:38.960Z,99271.78
2022-10-14T01:09:36.455Z,99262.25
2022-10-14T01:12:36.383Z,99266.53
2022-10-14T01:15:39.017Z,99268.28
2022-10-14T01:18:46.821Z,99262.22
2022-10-14T01:21:42.115Z,99243.25
2022-10-14T01:24:34.370Z,99253.56
2022-10-14T01:27:55.577Z,99227.69
2022-10-14T01:30:49.738Z,99225.09
2022-10-14T01:33:40.154Z,99235.41
2022-10-14T01:36:42.419Z,99244.91
2022-10-14T01:39:41.467Z,99243.22
2022-10-14T01:42:33.702Z,99226.81
2022-10-14T01:45:22.654Z,99212.16
2022-10-14T01:48:11.737Z,99220.81
2022-10-14T01:51:02.430Z,99218.22
2022-10-14T01:54:02.006Z,99247.56
2022-10-14T01:56:49.870Z,99253.66
2022-10-14T01:59:40.682Z,99226.03
2022-10-14T02:02:26.748Z,99230.34
2022-10-14T02:05:41.242Z,99236.34
2022-10-14T02:08:44.861Z,99268.28
2022-10-14T02:11:52.735Z,99259.63
2022-10-14T02:15:06.453Z,99227.66
2022-10-14T02:18:00.662Z,99262.16
2022-10-14T02:20:57.899Z,99259.63
2022-10-14T02:24:00.194Z,99250.94
2022-10-14T02:26:49.638Z,99244.03
2022-10-14T02:29:37.414Z,99225.03
2022-10-14T02:32:25.929Z,99227.63
2022-10-14T02:35:15.506Z,99210.38
2022-10-14T02:38:02.599Z,99191.47
2022-10-14T02:40:50.657Z,99201.78
2022-10-14T02:43:37.701Z,99181.97
2022-10-14T02:46:25.825Z,99165.56
2022-10-14T02:49:12.654Z,99180.22
2022-10-14T02:51:59.130Z,99210.41
2022-10-14T02:54:45.487Z,99173.34
2022-10-14T02:57:31.904Z,99186.28
2022-10-14T03:00:18.449Z,99196.56
2022-10-14T03:03:04.888Z,99186.22
2022-10-14T03:05:51.673Z,99178.50
2022-10-14T03:08:40.093Z,99178.44
2022-10-14T03:11:27.192Z,99150.88
2022-10-14T03:14:19.974Z,99165.50
2022-10-14T03:17:07.636Z,99158.63
2022-10-14T03:19:54.142Z,99146.56
2022-10-14T03:22:40.272Z,99169.84
2022-10-14T03:25:27.789Z,99162.09
2022-10-14T03:28:35.073Z,99166.41
2022-10-14T03:31:30.685Z,99162.97
2022-10-14T03:34:39.796Z,99145.75
2022-10-14T03:37:33.599Z,99158.69
2022-10-14T03:40:20.829Z,99144.78
2022-10-14T03:43:07.438Z,99147.41
2022-10-14T03:46:02.759Z,99132.72
2022-10-14T03:48:49.513Z,99150.88
2022-10-14T03:51:36.326Z,99146.53
2022-10-14T03:54:33.889Z,99135.31
2022-10-14T03:57:20.159Z,99088.75
2022-10-14T04:00:12.675Z,99062.94
2022-10-14T04:03:02.049Z,99124.13
2022-10-14T04:05:54.154Z,99105.16
2022-10-14T04:08:43.583Z,99115.50
2022-10-14T04:11:39.561Z,99118.09
2022-10-14T04:14:29.797Z,99116.41
2022-10-14T04:17:16.185Z,99120.72
2022-10-14T04:20:04.216Z,99116.38
2022-10-14T04:22:50.439Z,99086.22
2022-10-14T04:25:39.601Z,99082.75
2022-10-14T04:28:26.835Z,99105.16
2022-10-14T04:31:26.344Z,99115.53
2022-10-14T04:34:20.374Z,99097.38
2022-10-14T04:37:06.733Z,99110.31
2022-10-14T04:40:11.763Z,99084.41
2022-10-14T04:43:03.640Z,99079.28
2022-10-14T04:45:56.297Z,99071.47
2022-10-14T04:48:47.961Z,99074.94
2022-10-14T04:51:35.622Z,99069.72
2022-10-14T04:54:40.480Z,99074.03
2022-10-14T04:57:26.892Z,99086.06
2022-10-14T05:00:13.911Z,99086.03
2022-10-14T05:03:11.755Z,99063.63
2022-10-14T05:05:58.848Z,99079.13
2022-10-14T05:08:45.786Z,99058.44
2022-10-14T05:11:33.139Z,99069.66
2022-10-14T05:14:20.664Z,99070.50
2022-10-14T05:17:10.732Z,99043.81
2022-10-14T05:19:56.995Z,99040.34
2022-10-14T05:22:46.070Z,99052.44
2022-10-14T05:25:32.204Z,99057.56
2022-10-14T05:28:19.190Z,99051.56
2022-10-14T05:31:08.060Z,99049.81
2022-10-14T05:34:01.780Z,99021.41
2022-10-14T05:36:48.258Z,99046.38
2022-10-14T05:39:35.766Z,99028.25
2022-10-14T05:42:22.648Z,99043.69
2022-10-14T05:45:12.543Z,99046.31
2022-10-14T05:48:05.822Z,99017.88
2022-10-14T05:50:52.234Z,99020.44
2022-10-14T05:53:43.057Z,99032.47
2022-10-14T05:56:34.350Z,99041.91
2022-10-14T05:59:22.367Z,99039.31
2022-10-14T06:02:10.236Z,99046.19
2022-10-14T06:04:56.714Z,99025.47
2022-10-14T06:07:43.278Z,99026.34
2022-10-14T06:10:29.466Z,99029.78
2022-10-14T06:13:15.762Z,99019.47
2022-10-14T06:16:07.113Z,99053.84
2022-10-14T06:18:54.682Z,99026.09
2022-10-14T06:21:41.663Z,99021.91
2022-10-14T06:24:27.871Z,99047.66
2022-10-14T06:27:14.160Z,99036.41
2022-10-14T06:30:00.406Z,99012.31
2022-10-14T06:32:46.885Z,99019.25
2022-10-14T06:35:33.361Z,99036.31
2022-10-14T06:38:20.688Z,99017.41
2022-10-14T06:41:07.301Z,99050.19
2022-10-14T06:43:53.593Z,99021.78
2022-10-14T06:46:40.013Z,99036.31
2022-10-14T06:49:26.395Z,99019.88
2022-10-14T06:52:13.132Z,99017.16
2022-10-14T06:54:59.790Z,98994.72
2022-10-14T06:57:46.012Z,99031.69
2022-10-14T07:00:32.218Z,99020.50
2022-10-14T07:03:18.543Z,99017.03
2022-10-14T07:06:06.309Z,99020.41
2022-10-14T07:08:53.089Z,99017.03
2022-10-14T07:11:39.643Z,99040.34
2022-10-14T07:14:25.810Z,99033.41
2022-10-14T07:17:12.030Z,99035.00
2022-10-14T07:19:58.431Z,99024.69
2022-10-14T07:22:46.060Z,99008.25
2022-10-14T07:25:32.927Z,99036.44
2022-10-14T07:28:19.639Z,98996.72
2022-10-14T07:31:11.217Z,99037.84
2022-10-14T07:33:57.878Z,99032.47
2022-10-14T07:36:44.370Z,99036.66
2022-10-14T07:39:30.600Z,99016.88
2022-10-14T07:42:16.838Z,99005.53
2022-10-14T07:45:04.737Z,99045.09
2022-10-14T07:47:51.462Z,99053.84
2022-10-14T07:50:38.008Z,99018.13
2022-10-14T07:53:25.002Z,99035.09
2022-10-14T07:56:11.623Z,99032.38
2022-10-14T07:58:58.599Z,99041.50
2022-10-14T08:01:49.710Z,99034.13
2022-10-14T08:04:35.885Z,99034.94
2022-10-14T08:07:23.233Z,99031.28
2022-10-14T08:10:10.127Z,99027.59
2022-10-14T08:12:57.793Z,99037.97
2022-10-14T08:15:44.000Z,99016.44
2022-10-14T08:18:30.442Z,99019.03
2022-10-14T08:21:18.610Z,99024.25
2022-10-14T08:24:05.354Z,99018.59
2022-10-14T08:26:57.905Z,99023.03
2022-10-14T08:29:44.184Z,98997.25
2022-10-14T08:32:30.721Z,99008.53
2022-10-14T08:35:17.218Z,99005.31
2022-10-14T08:38:03.638Z,99018.22
2022-10-14T08:41:15.880Z,99015.06
2022-10-14T08:44:25.854Z,99016.84
2022-10-14T08:47:20.667Z,99017.66
2022-10-14T08:50:29.139Z,98995.16
2022-10-14T08:53:22.574Z,99004.44
2022-10-14T08:56:11.918Z,99013.09
2022-10-14T08:59:02.694Z,99011.16
2022-10-14T09:02:04.647Z,99018.06
2022-10-14T09:04:50.828Z,99015.22
2022-10-14T09:07:37.305Z,99014.38
2022-10-14T09:10:34.410Z,99010.81
2022-10-14T09:13:31.322Z,99016.69
2022-10-14T09:16:22.179Z,99016.69
2022-10-14T09:19:34.708Z,99011.44
2022-10-14T09:22:21.321Z,98986.38
2022-10-14T09:25:17.753Z,99006.91
2022-10-14T09:28:04.041Z,98984.31
2022-10-14T09:30:50.238Z,99002.50
2022-10-14T09:33:42.217Z,99015.41
2022-10-14T09:36:28.988Z,99007.53
2022-10-14T09:39:16.498Z,99018.84
2022-10-14T09:42:02.878Z,99005.00
2022-10-14T09:45:12.958Z,99005.91
2022-10-14T09:48:09.527Z,98968.72
2022-10-14T09:50:57.764Z,98984.00
2022-10-14T09:53:49.010Z,98979.78
2022-10-14T09:56:41.836Z,98961.50
2022-10-14T09:59:29.607Z,98989.69
2022-10-14T10:02:24.912Z,98978.34
2022-10-14T10:05:32.626Z,98973.03
2022-10-14T10:08:19.261Z,98951.31
2022-10-14T10:11:13.759Z,98965.41
2022-10-14T10:14:18.520Z,98963.25
2022-10-14T10:17:08.221Z,98959.31
2022-10-14T10:20:33.531Z,98953.81
2022-10-14T10:23:25.306Z,98950.81
2022-10-14T10:26:17.981Z,98930.50
2022-10-14T10:29:05.678Z,98943.97
2022-10-14T10:32:01.631Z,98939.22
2022-10-14T10:34:56.643Z,98917.31
2022-10-14T10:37:55.205Z,98934.53
2022-10-14T10:41:10.597Z,98926.56
2022-10-14T10:44:22.436Z,98915.69
2022-10-14T10:47:17.331Z,98917.72
2022-10-14T10:50:16.788Z,98905.09
2022-10-14T10:53:29.363Z,98893.38
2022-10-14T10:56:35.146Z,98889.78
2022-10-14T10:59:56.516Z,98893.44
2022-10-14T11:03:09.740Z,98896.03
2022-10-14T11:06:40.149Z,98902.38
2022-10-14T11:10:10.668Z,98900.94
2022-10-14T11:13:34.895Z,98893.25
2022-10-14T11:16:30.382Z,98896.41
2022-10-14T11:19:59.214Z,98890.19
2022-10-14T11:23:01.325Z,98894.09
2022-10-14T11:26:00.988Z,98886.44
2022-10-14T11:29:20.286Z,98885.78
2022-10-14T11:32:37.918Z,98887.03
2022-10-14T11:35:37.845Z,98880.19
2022-10-14T11:38:44.428Z,98875.44
2022-10-14T11:41:45.764Z,98870.28
2022-10-14T11:44:40.247Z,98878.63
2022-10-14T11:47:33.761Z,98873.19
2022-10-14T11:50:39.238Z,98866.81
2022-10-14T11:53:40.273Z,98851.66
2022-10-14T11:56:41.345Z,98844.69
2022-10-14T12:00:18.466Z,98845.69
2022-10-14T12:03:36.407Z,98824.25
2022-10-14T12:06:51.782Z,98829.59
2022-10-14T12:09:44.719Z,98838.41
2022-10-14T12:12:33.707Z,98789.19
2022-10-14T12:15:23.329Z,98821.06
2022-10-14T12:18:11.838Z,98823.94
2022-10-14T12:21:10.138Z,98828.47
2022-10-14T12:24:18.644Z,98826.25
2022-10-14T12:27:11.310Z,98815.66
2022-10-14T12:29:59.253Z,98797.66
2022-10-14T12:33:08.638Z,98805.47
2022-10-14T12:36:00.214Z,98788.53
2022-10-14T12:39:18.893Z,98785.75
2022-10-14T12:42:12.031Z,98763.41
2022-10-14T12:45:01.611Z,98770.63
2022-10-14T12:48:00.673Z,98782.72
2022-10-14T12:50:49.649Z,98764.22
2022-10-14T12:53:39.302Z,98755.13
2022-10-14T12:56:42.778Z,98772.47
2022-10-14T12:59:38.845Z,98744.66
2022-10-14T13:02:35.211Z,98751.00
2022-10-14T13:05:43.089Z,98769.72
2022-10-14T13:08:29.637Z,98771.56
2022-10-14T13:11:25.924Z,98769.06
2022-10-14T13:14:31.890Z,98765.03
2022-10-14T13:17:45.356Z,98762.69
2022-10-14T13:20:34.609Z,98768.91
2022-10-14T13:23:30.149Z,98762.22
2022-10-14T13:26:27.595Z,98763.66
2022-10-14T13:29:19.818Z,98757.09
2022-10-14T13:32:41.604Z,98766.09
2022-10-14T13:35:33.970Z,98762.19
2022-10-14T13:38:23.979Z,98766.06
2022-10-14T13:41:18.675Z,98745.28
2022-10-14T13:44:05.225Z,98755.69
2022-10-14T13:46:52.067Z,98741.41
2022-10-14T13:49:40.456Z,98768.38
2022-10-14T13:52:27.975Z,98757.28
2022-10-14T13:55:17.964Z,98764.41
2022-10-14T13:58:14.161Z,98761.22
2022-10-14T14:01:05.088Z,98724.81
2022-10-14T14:03:55.526Z,98760.84
2022-10-14T14:07:02.993Z,98749.53
2022-10-14T14:10:00.543Z,98743.34
2022-10-14T14:12:47.964Z,98724.75
2022-10-14T14:15:36.778Z,98712.81
2022-10-14T14:18:30.436Z,98698.13
2022-10-14T14:21:27.016Z,98711.91
2022-10-14T14:24:20.433Z,98741.97
2022-10-14T14:27:17.984Z,98729.00
2022-10-14T14:30:20.389Z,98733.53
2022-10-14T14:33:12.301Z,98741.28
2022-10-14T14:36:03.176Z,98742.97
2022-10-14T14:38:56.157Z,98748.88
2022-10-14T14:41:50.472Z,98740.47
2022-10-14T14:44:39.097Z,98698.28
2022-10-14T14:47:28.095Z,98743.22
2022-10-14T14:50:30.107Z,98733.25
2022-10-14T14:53:24.012Z,98752.63
2022-10-14T14:56:19.147Z,98740.78
2022-10-14T14:59:30.437Z,98735.66
2022-10-14T15:02:22.412Z,98748.63
2022-10-14T15:05:10.694Z,98740.78
2022-10-14T15:07:57.390Z,98715.25
2022-10-14T15:10:48.542Z,98725.78
2022-10-14T15:13:38.456Z,98752.28
2022-10-14T15:16:42.080Z,98752.22
2022-10-14T15:19:38.251Z,98736.75
2022-10-14T15:22:32.560Z,98732.97
2022-10-14T15:25:22.410Z,98731.09
2022-10-14T15:28:30.017Z,98714.94
2022-10-14T15:31:18.900Z,98717.69
2022-10-14T15:34:12.237Z,98711.56
2022-10-14T15:36:58.456Z,98694.16
2022-10-14T15:39:44.791Z,98688.53
2022-10-14T15:42:33.435Z,98711.03
2022-10-14T15:45:20.249Z,98712.94
2022-10-14T15:48:07.374Z,98711.56
2022-10-14T15:50:53.682Z,98715.19
2022-10-14T15:53:40.026Z,98705.06
2022-10-14T15:56:26.849Z,98671.91
2022-10-14T15:59:16.118Z,98692.41
2022-10-14T16:02:04.075Z,98692.69
2022-10-14T16:05:18.269Z,98696.28
2022-10-14T16:07:57.710Z,98685.03
2022-10-14T16:10:45.336Z,98702.34
2022-10-14T16:13:31.714Z,98705.13
2022-10-14T16:16:28.131Z,98626.44
2022-10-14T16:19:14.135Z,98707.88
2022-10-14T16:22:00.474Z,98625.94
2022-10-14T16:24:46.686Z,98702.88
2022-10-14T16:27:32.859Z,98706.03
2022-10-14T16:30:19.508Z,98687.56
2022-10-14T16:33:06.850Z,98662.16
2022-10-14T16:35:55.381Z,98704.13
2022-10-14T16:38:41.897Z,98705.56
2022-10-14T16:41:28.080Z,98693.72
2022-10-14T16:44:27.181Z,98703.16
2022-10-14T16:47:16.633Z,98704.13
2022-10-14T16:50:04.193Z,98689.63
2022-10-14T16:53:09.470Z,98726.44
2022-10-14T16:55:58.713Z,98717.13
2022-10-14T16:58:44.982Z,98712.94
2022-10-14T17:01:31.890Z,98707.00
2022-10-14T17:04:19.525Z,98713.13
2022-10-14T17:07:10.329Z,98682.41
2022-10-14T17:09:57.729Z,98677.34
2022-10-14T17:12:43.949Z,98685.72
2022-10-14T17:15:30.129Z,98705.47
2022-10-14T17:18:17.949Z,98708.78
2022-10-14T17:21:07.664Z,98677.97
2022-10-14T17:23:54.236Z,98677.97
2022-10-14T17:26:40.450Z,98659.09
2022-10-14T17:29:28.570Z,98674.50
2022-10-14T17:32:14.937Z,98675.50
2022-10-14T17:35:01.486Z,98667.09
2022-10-14T17:37:47.560Z,98669.84
2022-10-14T17:40:33.921Z,98654.56
2022-10-14T17:43:20.457Z,98682.53
2022-10-14T17:46:11.995Z,98663.88
2022-10-14T17:49:00.235Z,98695.81
2022-10-14T17:51:47.213Z,98640.00
2022-10-14T17:54:33.458Z,98688.06
2022-10-14T17:57:19.813Z,98693.94
2022-10-14T18:00:06.727Z,98689.81
2022-10-14T18:02:57.909Z,98685.53
2022-10-14T18:05:48.123Z,98670.97
2022-10-14T18:08:35.514Z,98695.97
2022-10-14T18:11:23.501Z,98701.09
2022-10-14T18:14:13.709Z,98685.81
2022-10-14T18:17:00.196Z,98684.00
2022-10-14T18:19:51.818Z,98692.72
2022-10-14T18:22:38.587Z,98691.28
2022-10-14T18:25:24.997Z,98664.41
2022-10-14T18:28:11.330Z,98682.63
2022-10-14T18:31:02.557Z,98657.25
2022-10-14T18:33:50.119Z,98672.31
2022-10-14T18:36:37.527Z,98628.84
2022-10-14T18:39:24.034Z,98657.25
2022-10-14T18:42:10.342Z,98658.13
2022-10-14T18:44:58.946Z,98658.28
2022-10-14T18:47:46.428Z,98656.53
2022-10-14T18:50:33.071Z,98633.56
2022-10-14T18:53:19.200Z,98624.25
2022-10-14T18:56:09.744Z,98650.94
2022-10-14T18:59:06.861Z,98648.41
2022-10-14T19:01:54.054Z,98630.53
2022-10-14T19:04:40.672Z,98619.34
2022-10-14T19:07:27.184Z,98615.78
2022-10-14T19:10:13.632Z,98601.31
2022-10-14T19:13:00.182Z,98601.13
2022-10-14T19:15:53.712Z,98627.72
2022-10-14T19:18:40.466Z,98614.88
2022-10-14T19:21:30.091Z,98596.91
2022-10-14T19:24:17.019Z,98606.38
2022-10-14T19:27:03.523Z,98570.88
2022-10-14T19:29:49.742Z,98601.06
2022-10-14T19:32:36.193Z,98592.22
2022-10-14T19:35:22.878Z,98566.81
2022-10-14T19:38:08.974Z,98565.91
2022-10-14T19:40:59.421Z,98592.53
2022-10-14T19:43:46.253Z,98591.63
2022-10-14T19:46:32.816Z,98589.13
2022-10-14T19:49:19.213Z,98589.13
2022-10-14T19:52:05.819Z,98583.09
2022-10-14T19:54:52.094Z,98556.34
2022-10-14T19:57:38.567Z,98552.00
2022-10-14T20:00:25.081Z,98566.47
2022-10-14T20:03:11.632Z,98544.25
2022-10-14T20:05:59.666Z,98548.50
2022-10-14T20:08:46.099Z,98547.53
2022-10-14T20:11:32.436Z,98548.34
2022-10-14T20:14:18.704Z,98524.41
2022-10-14T20:17:04.900Z,98518.19
2022-10-14T20:19:51.353Z,98526.91
2022-10-14T20:22:37.472Z,98536.94
2022-10-14T20:25:23.778Z,98518.97
2022-10-14T20:28:11.832Z,98534.34
2022-10-14T20:30:57.902Z,98525.47
2022-10-14T20:33:44.873Z,98521.03
2022-10-14T20:36:31.391Z,98525.50
2022-10-14T20:39:17.602Z,98519.22
2022-10-14T20:42:06.090Z,98518.56
2022-10-14T20:44:52.643Z,98510.94
2022-10-14T20:47:38.983Z,98501.06
2022-10-14T20:50:25.081Z,98504.75
2022-10-14T20:53:11.437Z,98492.09
2022-10-14T20:56:02.891Z,98500.66
2022-10-14T20:58:54.055Z,98478.53
2022-10-14T21:01:40.514Z,98469.19
2022-10-14T21:04:26.873Z,98486.22
2022-10-14T21:07:13.077Z,98499.81
2022-10-14T21:09:59.556Z,98463.09
2022-10-14T21:12:48.706Z,98456.97
2022-10-14T21:15:35.164Z,98469.88
2022-10-14T21:18:23.282Z,98485.31
2022-10-14T21:21:10.552Z,98470.59
2022-10-14T21:23:59.594Z,98480.09
2022-10-14T21:26:50.565Z,98477.59
2022-10-14T21:29:37.094Z,98455.19
2022-10-14T21:32:23.846Z,98438.81
2022-10-14T21:35:10.778Z,98448.91
2022-10-14T21:37:56.938Z,98467.03
2022-10-14T21:40:43.238Z,98451.38
2022-10-14T21:43:31.831Z,98447.25
2022-10-14T21:46:18.348Z,98430.97
2022-10-14T21:49:04.700Z,98422.22
2022-10-14T21:51:51.475Z,98429.97
2022-10-14T21:54:37.553Z,98441.34
2022-10-14T21:57:24.105Z,98416.28
2022-10-14T22:00:11.670Z,98429.78
2022-10-14T22:02:58.054Z,98407.72
2022-10-14T22:05:45.089Z,98412.16
2022-10-14T22:08:36.781Z,98426.59
2022-10-14T22:11:29.406Z,98425.81
2022-10-14T22:14:19.306Z,98393.72
2022-10-14T22:17:05.822Z,98416.22
2022-10-14T22:19:52.080Z,98417.13
2022-10-14T22:22:38.246Z,98408.47
2022-10-14T22:25:25.378Z,98394.81
2022-10-14T22:28:11.520Z,98405.03
2022-10-14T22:31:13.063Z,98405.75
2022-10-14T22:34:01.285Z,98395.47
2022-10-14T22:36:47.670Z,98367.38
2022-10-14T22:39:34.257Z,98378.69
2022-10-14T22:42:20.597Z,98388.56
2022-10-14T22:45:07.134Z,98375.00
2022-10-14T22:47:53.551Z,98386.13
2022-10-14T22:50:39.992Z,98368.91
2022-10-14T22:53:28.420Z,98378.88
2022-10-14T22:56:17.282Z,98382.44
2022-10-14T22:59:10.281Z,98376.44
2022-10-14T23:01:56.646Z,98350.97
2022-10-14T23:04:42.820Z,98374.97
2022-10-14T23:07:29.453Z,98368.06
2022-10-14T23:10:16.186Z,98354.47
2022-10-14T23:13:02.405Z,98359.19
2022-10-14T23:15:59.942Z,98367.84
2022-10-14T23:18:46.662Z,98359.22
2022-10-14T23:21:35.938Z,98360.13
2022-10-14T23:24:22.364Z,98359.16
2022-10-14T23:27:08.934Z,98357.44
2022-10-14T23:29:55.412Z,98352.91
2022-10-14T23:32:41.694Z,98356.47
2022-10-14T23:35:28.118Z,98344.66
2022-10-14T23:38:14.108Z,98356.31
2022-10-14T23:41:02.735Z,98331.72
2022-10-14T23:43:50.928Z,98355.59
2022-10-14T23:46:37.392Z,98319.44
2022-10-14T23:49:26.297Z,98335.69
2022-10-14T23:52:12.965Z,98319.63
2022-10-14T23:54:59.286Z,98344.34
2022-10-14T23:57:45.523Z,98317.03
